createdAt,value
2019-03-13T00:01:24.826Z,56.90
2019-03-13T00:03:01.107Z,60.17
2019-03-13T00:04:37.432Z,57.27
2019-03-13T00:06:14.584Z,62.50
2019-03-13T00:07:50.740Z,55.93
2019-03-13T00:09:28.384Z,53.30
2019-03-13T00:11:04.676Z,54.15
2019-03-13T00:12:40.939Z,52.73
2019-03-13T00:14:17.385Z,50.90
2019-03-13T00:15:54.306Z,52.83
2019-03-13T00:17:30.633Z,62.47
2019-03-13T00:19:07.230Z,54.33
2019-03-13T00:20:43.361Z,59.23
2019-03-13T00:22:19.745Z,59.57
2019-03-13T00:23:57.372Z,56.37
2019-03-13T00:25:33.713Z,59.93
2019-03-13T00:27:10.169Z,56.23
2019-03-13T00:28:46.497Z,54.80
2019-03-13T00:30:34.447Z,54.60
2019-03-13T00:32:11.170Z,50.23
2019-03-13T00:33:47.414Z,54.67
2019-03-13T00:35:23.757Z,51.92
2019-03-13T00:37:00.056Z,52.90
2019-03-13T00:38:36.351Z,50.43
2019-03-13T00:40:13.631Z,51.53
2019-03-13T00:41:49.887Z,55.00
2019-03-13T00:43:26.091Z,54.33
2019-03-13T00:45:02.419Z,45.90
2019-03-13T00:46:39.859Z,52.30
2019-03-13T00:48:16.205Z,50.33
2019-03-13T00:49:52.417Z,52.33
2019-03-13T00:51:28.770Z,47.97
2019-03-13T00:53:04.943Z,48.27
2019-03-13T00:54:41.277Z,47.63
2019-03-13T00:56:17.490Z,43.00
2019-03-13T00:57:53.878Z,48.00
2019-03-13T00:59:30.323Z,54.93
2019-03-13T01:01:18.214Z,56.57
2019-03-13T01:02:55.475Z,50.20
2019-03-13T01:04:36.338Z,50.43
2019-03-13T01:06:20.459Z,49.03
2019-03-13T01:07:56.791Z,47.13
2019-03-13T01:09:32.941Z,45.37
2019-03-13T01:11:09.149Z,54.53
2019-03-13T01:12:45.402Z,50.97
2019-03-13T01:14:21.578Z,54.47
2019-03-13T01:15:57.644Z,48.17
2019-03-13T01:17:34.058Z,50.40
2019-03-13T01:19:12.847Z,50.63
2019-03-13T01:20:51.759Z,52.15
2019-03-13T01:22:28.365Z,46.40
2019-03-13T01:24:04.705Z,46.30
2019-03-13T01:25:41.047Z,51.70
2019-03-13T01:27:17.361Z,50.57
2019-03-13T01:28:53.229Z,47.95
2019-03-13T01:30:30.948Z,48.83
2019-03-13T01:32:20.387Z,46.63
2019-03-13T01:33:59.357Z,46.73
2019-03-13T01:35:37.076Z,45.35
2019-03-13T01:37:13.228Z,47.67
2019-03-13T01:38:49.404Z,47.07
2019-03-13T01:40:26.836Z,41.10
2019-03-13T01:42:03.011Z,49.13
2019-03-13T01:43:39.091Z,45.33
2019-03-13T01:45:18.057Z,45.90
2019-03-13T01:46:54.292Z,45.20
2019-03-13T01:48:30.513Z,47.60
2019-03-13T01:50:14.081Z,49.33
2019-03-13T01:51:50.225Z,44.97
2019-03-13T01:53:26.334Z,46.60
2019-03-13T01:55:02.488Z,45.10
2019-03-13T01:56:38.664Z,48.10
2019-03-13T01:58:14.845Z,42.97
2019-03-13T01:59:51.015Z,48.97
2019-03-13T02:01:27.102Z,47.07
2019-03-13T02:03:03.278Z,42.80
2019-03-13T02:04:39.453Z,43.13
2019-03-13T02:06:15.728Z,39.57
2019-03-13T02:07:51.675Z,38.43
2019-03-13T02:09:27.791Z,37.97
2019-03-13T02:11:04.002Z,36.10
2019-03-13T02:12:40.303Z,39.67
2019-03-13T02:14:16.619Z,36.00
2019-03-13T02:15:52.952Z,35.17
2019-03-13T02:17:29.169Z,33.97
2019-03-13T02:19:05.390Z,33.47
2019-03-13T02:20:41.466Z,27.10
2019-03-13T02:22:17.782Z,33.30
2019-03-13T02:23:53.953Z,25.17
2019-03-13T02:25:31.323Z,34.20
2019-03-13T02:27:07.390Z,30.73
2019-03-13T02:28:43.505Z,25.93
2019-03-13T02:30:24.614Z,30.35
2019-03-13T02:32:00.661Z,28.97
2019-03-13T02:33:36.961Z,25.35
2019-03-13T02:35:13.317Z,23.20
2019-03-13T02:36:49.519Z,19.70
2019-03-13T02:38:25.668Z,27.53
2019-03-13T02:40:01.845Z,28.33
2019-03-13T02:41:38.098Z,30.73
2019-03-13T02:43:14.242Z,29.83
2019-03-13T02:44:50.417Z,32.93
2019-03-13T02:46:26.659Z,36.00
2019-03-13T02:48:04.025Z,35.57
2019-03-13T02:49:40.173Z,28.57
2019-03-13T02:51:16.316Z,34.73
2019-03-13T02:52:52.601Z,32.67
2019-03-13T02:54:28.689Z,25.33
2019-03-13T02:56:04.903Z,30.57
2019-03-13T02:57:41.090Z,34.63
2019-03-13T02:59:17.157Z,32.50
2019-03-13T03:00:58.812Z,32.23
2019-03-13T03:02:36.605Z,31.77
2019-03-13T03:04:12.824Z,32.37
2019-03-13T03:05:48.978Z,27.27
2019-03-13T03:07:25.379Z,28.67
2019-03-13T03:09:13.265Z,29.15
2019-03-13T03:10:49.414Z,31.30
2019-03-13T03:12:25.589Z,29.00
2019-03-13T03:14:01.689Z,27.50
2019-03-13T03:15:37.842Z,28.47
2019-03-13T03:17:14.150Z,16.83
2019-03-13T03:18:50.330Z,32.47
2019-03-13T03:20:26.594Z,31.93
2019-03-13T03:22:02.810Z,32.93
2019-03-13T03:23:38.977Z,24.10
2019-03-13T03:25:17.914Z,26.27
2019-03-13T03:26:54.165Z,28.80
2019-03-13T03:28:30.321Z,26.80
2019-03-13T03:30:22.343Z,22.33
2019-03-13T03:31:58.602Z,26.80
2019-03-13T03:33:36.130Z,29.03
2019-03-13T03:35:12.330Z,26.93
2019-03-13T03:36:48.473Z,25.43
2019-03-13T03:38:24.608Z,24.77
2019-03-13T03:40:00.766Z,22.30
2019-03-13T03:41:36.894Z,24.53
2019-03-13T03:43:12.962Z,26.07
2019-03-13T03:44:49.206Z,24.73
2019-03-13T03:46:25.522Z,24.87
2019-03-13T03:48:01.588Z,23.00
2019-03-13T03:49:37.756Z,24.27
2019-03-13T03:51:14.025Z,20.50
2019-03-13T03:52:49.979Z,24.43
2019-03-13T03:54:26.054Z,17.90
2019-03-13T03:56:02.312Z,20.93
2019-03-13T03:57:38.534Z,25.47
2019-03-13T03:59:14.949Z,17.13
2019-03-13T04:00:51.191Z,21.13
2019-03-13T04:02:27.330Z,19.80
2019-03-13T04:04:03.470Z,21.67
2019-03-13T04:05:39.712Z,21.93
2019-03-13T04:07:16.221Z,21.53
2019-03-13T04:08:52.367Z,22.53
2019-03-13T04:10:28.482Z,23.87
2019-03-13T04:12:04.801Z,24.23
2019-03-13T04:13:44.409Z,21.97
2019-03-13T04:15:19.012Z,22.20
2019-03-13T04:16:55.314Z,21.27
2019-03-13T04:18:31.456Z,21.10
2019-03-13T04:20:16.822Z,23.90
2019-03-13T04:21:53.035Z,22.63
2019-03-13T04:23:29.270Z,22.70
2019-03-13T04:25:27.596Z,22.77
2019-03-13T04:27:03.938Z,14.97
2019-03-13T04:28:39.958Z,21.27
2019-03-13T04:30:16.213Z,20.90
2019-03-13T04:31:52.150Z,20.97
2019-03-13T04:33:28.592Z,20.77
2019-03-13T04:35:05.829Z,21.40
2019-03-13T04:36:42.069Z,17.77
2019-03-13T04:38:19.380Z,20.60
2019-03-13T04:39:55.364Z,19.33
2019-03-13T04:41:31.450Z,19.27
2019-03-13T04:43:07.768Z,18.57
2019-03-13T04:44:43.837Z,17.90
2019-03-13T04:46:19.981Z,19.40
2019-03-13T04:47:56.218Z,13.97
2019-03-13T04:49:32.360Z,18.73
2019-03-13T04:51:08.438Z,16.57
2019-03-13T04:52:44.749Z,14.83
2019-03-13T04:54:20.896Z,18.90
2019-03-13T04:55:57.096Z,17.50
2019-03-13T04:57:33.279Z,17.53
2019-03-13T04:59:09.288Z,17.27
2019-03-13T05:00:45.541Z,18.47
2019-03-13T05:02:21.690Z,20.47
2019-03-13T05:03:57.939Z,21.93
2019-03-13T05:05:52.981Z,17.90
2019-03-13T05:07:29.130Z,16.67
2019-03-13T05:09:06.956Z,17.30
2019-03-13T05:10:43.302Z,22.73
2019-03-13T05:12:19.401Z,15.87
2019-03-13T05:13:55.473Z,16.40
2019-03-13T05:15:31.627Z,19.53
2019-03-13T05:17:07.765Z,19.50
2019-03-13T05:18:43.773Z,26.00
2019-03-13T05:20:20.023Z,17.53
2019-03-13T05:21:56.236Z,16.73
2019-03-13T05:23:32.376Z,20.33
2019-03-13T05:25:08.886Z,16.33
2019-03-13T05:26:45.036Z,16.70
2019-03-13T05:28:21.212Z,20.50
2019-03-13T05:29:57.245Z,19.60
2019-03-13T05:31:33.488Z,19.90
2019-03-13T05:33:09.460Z,20.73
2019-03-13T05:34:46.757Z,19.20
2019-03-13T05:36:22.878Z,23.23
2019-03-13T05:37:58.954Z,19.27
2019-03-13T05:39:36.260Z,23.63
2019-03-13T05:41:12.482Z,15.93
2019-03-13T05:42:48.548Z,23.47
2019-03-13T05:44:24.614Z,19.53
2019-03-13T05:46:00.865Z,20.47
2019-03-13T05:47:38.287Z,18.57
2019-03-13T05:49:15.200Z,20.37
2019-03-13T05:50:51.339Z,18.90
2019-03-13T05:52:27.601Z,17.50
2019-03-13T05:54:03.674Z,15.03
2019-03-13T05:55:39.821Z,22.10
2019-03-13T05:57:16.093Z,21.17
2019-03-13T05:58:52.333Z,17.83
2019-03-13T06:00:29.341Z,17.00
2019-03-13T06:02:05.556Z,15.27
2019-03-13T06:03:41.564Z,17.37
2019-03-13T06:05:17.952Z,18.73
2019-03-13T06:06:54.055Z,15.97
2019-03-13T06:08:30.266Z,16.17
2019-03-13T06:10:12.341Z,15.43
2019-03-13T06:11:48.413Z,14.97
2019-03-13T06:13:24.530Z,16.13
2019-03-13T06:15:03.458Z,16.30
2019-03-13T06:16:38.434Z,18.30
2019-03-13T06:18:14.511Z,19.30
2019-03-13T06:19:50.384Z,16.40
2019-03-13T06:21:27.743Z,14.10
2019-03-13T06:23:03.844Z,17.20
2019-03-13T06:24:39.907Z,16.07
2019-03-13T06:26:15.707Z,14.97
2019-03-13T06:27:51.770Z,11.27
2019-03-13T06:29:31.747Z,15.07
2019-03-13T06:31:07.389Z,17.63
2019-03-13T06:32:43.644Z,12.10
2019-03-13T06:34:19.632Z,14.70
2019-03-13T06:35:55.705Z,10.03
2019-03-13T06:37:31.870Z,15.33
2019-03-13T06:39:08.842Z,15.80
2019-03-13T06:40:44.974Z,15.13
2019-03-13T06:42:21.045Z,14.37
2019-03-13T06:43:58.537Z,11.87
2019-03-13T06:45:34.741Z,13.00
2019-03-13T06:47:11.033Z,12.20
2019-03-13T06:48:47.103Z,11.60
2019-03-13T06:50:25.603Z,10.90
2019-03-13T06:52:01.504Z,11.70
2019-03-13T06:53:37.717Z,11.67
2019-03-13T06:55:14.239Z,9.60
2019-03-13T06:56:50.513Z,12.17
2019-03-13T06:58:28.211Z,11.33
2019-03-13T07:00:24.637Z,11.07
2019-03-13T07:02:09.589Z,8.43
2019-03-13T07:03:47.572Z,12.33
2019-03-13T07:05:25.384Z,11.73
2019-03-13T07:07:09.147Z,9.97
2019-03-13T07:08:50.217Z,12.33
2019-03-13T07:10:28.274Z,10.27
2019-03-13T07:12:15.263Z,11.13
2019-03-13T07:13:53.121Z,10.57
2019-03-13T07:15:39.934Z,10.83
2019-03-13T07:17:23.687Z,12.37
2019-03-13T07:19:17.417Z,10.00
2019-03-13T07:20:58.050Z,10.47
2019-03-13T07:22:35.832Z,9.17
2019-03-13T07:24:13.740Z,10.57
2019-03-13T07:25:54.163Z,9.70
2019-03-13T07:27:49.028Z,11.37
2019-03-13T07:29:29.360Z,12.07
2019-03-13T07:31:07.205Z,12.17
2019-03-13T07:32:56.955Z,9.83
2019-03-13T07:34:52.959Z,7.90
2019-03-13T07:36:46.641Z,8.63
2019-03-13T07:38:24.335Z,9.97
2019-03-13T07:40:18.504Z,10.77
2019-03-13T07:41:58.953Z,8.50
2019-03-13T07:43:40.888Z,8.53
2019-03-13T07:45:19.543Z,10.33
2019-03-13T07:47:13.547Z,9.67
2019-03-13T07:48:54.186Z,11.30
2019-03-13T07:50:39.078Z,10.37
2019-03-13T07:52:33.147Z,9.70
2019-03-13T07:54:13.959Z,11.50
2019-03-13T07:56:11.373Z,11.93
2019-03-13T07:58:05.048Z,15.20
2019-03-13T07:59:49.068Z,17.43
2019-03-13T08:01:45.071Z,12.63
2019-03-13T08:03:35.236Z,12.77
2019-03-13T08:05:22.938Z,9.90
2019-03-13T08:07:11.150Z,10.53
2019-03-13T08:09:07.411Z,11.90
2019-03-13T08:10:57.486Z,11.53
2019-03-13T08:12:51.852Z,11.10
2019-03-13T08:14:46.193Z,10.77
2019-03-13T08:16:23.972Z,8.83
2019-03-13T08:18:04.876Z,11.67
2019-03-13T08:19:43.452Z,11.90
2019-03-13T08:21:22.157Z,10.07
2019-03-13T08:23:00.102Z,10.03
2019-03-13T08:24:41.877Z,9.90
2019-03-13T08:26:22.365Z,10.40
2019-03-13T08:28:16.040Z,10.60
2019-03-13T08:29:53.770Z,11.20
2019-03-13T08:31:31.487Z,15.40
2019-03-13T08:33:09.350Z,12.57
2019-03-13T08:34:47.134Z,12.03
2019-03-13T08:36:24.916Z,11.83
2019-03-13T08:38:05.379Z,12.20
2019-03-13T08:39:43.158Z,14.70
2019-03-13T08:41:20.965Z,11.70
2019-03-13T08:42:58.675Z,10.30
2019-03-13T08:44:34.619Z,15.00
2019-03-13T08:46:12.332Z,13.47
2019-03-13T08:48:08.142Z,10.90
2019-03-13T08:49:50.322Z,11.90
2019-03-13T08:51:30.947Z,9.83
2019-03-13T08:53:06.868Z,13.87
2019-03-13T08:55:03.082Z,12.27
2019-03-13T08:56:59.765Z,11.60
2019-03-13T08:58:37.420Z,10.37
2019-03-13T09:00:38.158Z,10.73
2019-03-13T09:02:32.198Z,14.70
2019-03-13T09:04:12.900Z,13.53
2019-03-13T09:05:58.144Z,10.97
2019-03-13T09:07:34.145Z,11.50
2019-03-13T09:09:11.989Z,9.63
2019-03-13T09:11:00.351Z,12.80
2019-03-13T09:12:54.399Z,15.97
2019-03-13T09:14:50.622Z,13.57
2019-03-13T09:16:31.464Z,12.07
2019-03-13T09:18:12.196Z,11.30
2019-03-13T09:20:05.131Z,11.00
2019-03-13T09:21:42.844Z,9.50
2019-03-13T09:23:36.364Z,11.00
2019-03-13T09:25:21.740Z,14.00
2019-03-13T09:26:59.483Z,12.00
2019-03-13T09:28:41.052Z,9.73
2019-03-13T09:30:18.904Z,12.17
2019-03-13T09:32:13.129Z,10.90
2019-03-13T09:33:50.911Z,10.07
2019-03-13T09:35:32.376Z,9.90
2019-03-13T09:37:10.146Z,9.23
2019-03-13T09:38:55.191Z,8.60
2019-03-13T09:40:42.280Z,8.80
2019-03-13T09:42:36.095Z,9.63
2019-03-13T09:44:29.072Z,9.10
2019-03-13T09:46:05.032Z,7.83
2019-03-13T09:47:42.812Z,9.17
2019-03-13T09:49:38.461Z,9.20
2019-03-13T09:51:31.296Z,9.07
2019-03-13T09:53:17.807Z,8.07
2019-03-13T09:54:55.529Z,7.47
2019-03-13T09:56:34.597Z,7.77
2019-03-13T09:58:25.835Z,7.30
2019-03-13T10:00:15.558Z,7.13
2019-03-13T10:01:53.431Z,7.67
2019-03-13T10:03:29.421Z,6.77
2019-03-13T10:05:18.150Z,8.43
2019-03-13T10:06:58.984Z,7.67
2019-03-13T10:08:39.857Z,8.20
2019-03-13T10:10:36.143Z,8.53
2019-03-13T10:12:16.767Z,9.67
2019-03-13T10:13:57.145Z,8.83
2019-03-13T10:15:43.770Z,9.10
2019-03-13T10:17:27.640Z,10.00
2019-03-13T10:19:21.807Z,9.63
2019-03-13T10:21:05.406Z,9.37
2019-03-13T10:22:47.611Z,9.00
2019-03-13T10:24:32.371Z,8.90
2019-03-13T10:26:26.342Z,9.60
2019-03-13T10:28:05.031Z,9.70
2019-03-13T10:29:54.976Z,10.90
2019-03-13T10:31:46.712Z,11.47
2019-03-13T10:33:26.235Z,9.83
2019-03-13T10:35:09.668Z,10.90
2019-03-13T10:36:50.730Z,10.07
2019-03-13T10:38:46.760Z,11.43
2019-03-13T10:40:42.156Z,10.10
2019-03-13T10:42:20.494Z,10.97
2019-03-13T10:44:07.063Z,12.27
2019-03-13T10:45:53.801Z,11.80
2019-03-13T10:47:37.831Z,11.23
2019-03-13T10:49:23.169Z,11.03
2019-03-13T10:50:59.240Z,11.53
2019-03-13T10:52:52.482Z,12.33
2019-03-13T10:54:47.591Z,11.00
2019-03-13T10:56:32.247Z,11.50
2019-03-13T10:58:08.141Z,11.07
2019-03-13T10:59:45.912Z,11.07
2019-03-13T11:01:32.527Z,10.60
2019-03-13T11:03:13.342Z,14.37
2019-03-13T11:04:51.182Z,11.30
2019-03-13T11:06:54.034Z,11.37
2019-03-13T11:08:32.443Z,9.70
2019-03-13T11:10:18.544Z,9.40
2019-03-13T11:12:03.566Z,9.77
2019-03-13T11:13:47.323Z,12.30
2019-03-13T11:15:30.741Z,12.93
2019-03-13T11:17:08.543Z,12.80
2019-03-13T11:18:46.239Z,12.20
2019-03-13T11:20:32.445Z,10.70
2019-03-13T11:22:16.160Z,12.07
2019-03-13T11:24:02.025Z,10.80
2019-03-13T11:25:56.297Z,11.70
2019-03-13T11:27:44.356Z,12.33
2019-03-13T11:29:25.866Z,14.77
2019-03-13T11:31:05.315Z,14.93
2019-03-13T11:32:44.440Z,16.53
2019-03-13T11:34:38.986Z,14.37
2019-03-13T11:36:28.663Z,13.50
2019-03-13T11:38:09.575Z,15.07
2019-03-13T11:39:50.102Z,19.93
2019-03-13T11:41:30.792Z,14.70
2019-03-13T11:43:12.960Z,21.20
2019-03-13T11:44:50.072Z,19.23
2019-03-13T11:46:33.580Z,18.63
2019-03-13T11:48:23.432Z,14.93
2019-03-13T11:50:01.265Z,15.37
2019-03-13T11:51:48.437Z,17.20
2019-03-13T11:53:26.326Z,14.40
2019-03-13T11:55:04.094Z,14.50
2019-03-13T11:56:41.944Z,13.83
2019-03-13T11:58:36.271Z,13.90
2019-03-13T12:00:28.790Z,15.13
2019-03-13T12:02:23.277Z,14.80
2019-03-13T12:04:17.240Z,14.33
2019-03-13T12:05:53.318Z,18.77
2019-03-13T12:07:40.190Z,24.20
2019-03-13T12:09:26.997Z,18.33
2019-03-13T12:11:17.227Z,12.37
2019-03-13T12:12:53.250Z,13.17
2019-03-13T12:14:33.460Z,14.07
2019-03-13T12:16:12.411Z,12.80
2019-03-13T12:17:51.252Z,12.17
2019-03-13T12:19:45.394Z,13.70
2019-03-13T12:21:38.481Z,19.73
2019-03-13T12:23:25.234Z,15.53
2019-03-13T12:25:08.798Z,14.50
2019-03-13T12:27:01.729Z,13.43
2019-03-13T12:28:39.427Z,18.80
2019-03-13T12:30:16.397Z,13.07
2019-03-13T12:31:57.067Z,13.57
2019-03-13T12:33:40.725Z,14.30
2019-03-13T12:35:19.784Z,13.00
2019-03-13T12:37:03.450Z,14.03
2019-03-13T12:38:39.557Z,11.93
2019-03-13T12:40:20.581Z,12.60
2019-03-13T12:42:05.562Z,14.13
2019-03-13T12:43:58.701Z,12.13
2019-03-13T12:45:42.560Z,16.33
2019-03-13T12:47:25.811Z,16.23
2019-03-13T12:49:09.550Z,16.53
2019-03-13T12:50:47.494Z,21.87
2019-03-13T12:52:41.579Z,16.33
2019-03-13T12:54:26.422Z,16.00
2019-03-13T12:56:20.052Z,15.13
2019-03-13T12:57:57.990Z,13.80
2019-03-13T12:59:54.138Z,13.17
2019-03-13T13:01:40.740Z,15.13
2019-03-13T13:03:35.368Z,11.20
2019-03-13T13:05:29.335Z,19.63
2019-03-13T13:07:17.114Z,11.47
2019-03-13T13:08:53.048Z,12.47
2019-03-13T13:10:30.827Z,10.90
2019-03-13T13:12:26.644Z,11.17
2019-03-13T13:14:21.046Z,10.53
2019-03-13T13:16:15.205Z,10.57
2019-03-13T13:18:05.021Z,10.43
2019-03-13T13:19:41.140Z,9.13
2019-03-13T13:21:17.268Z,11.00
2019-03-13T13:22:53.069Z,10.70
2019-03-13T13:24:29.375Z,11.20
2019-03-13T13:26:05.781Z,12.07
2019-03-13T13:27:42.080Z,9.70
2019-03-13T13:29:18.349Z,9.80
2019-03-13T13:30:54.653Z,8.30
2019-03-13T13:32:30.852Z,8.57
2019-03-13T13:34:07.084Z,8.80
2019-03-13T13:35:43.368Z,9.10
2019-03-13T13:37:19.702Z,8.80
2019-03-13T13:39:08.824Z,8.30
2019-03-13T13:40:45.111Z,10.37
2019-03-13T13:42:21.243Z,10.07
2019-03-13T13:43:57.167Z,10.60
2019-03-13T13:45:37.402Z,13.33
2019-03-13T13:47:13.478Z,9.07
2019-03-13T13:48:49.712Z,9.53
2019-03-13T13:50:26.596Z,11.57
2019-03-13T13:52:02.857Z,12.80
2019-03-13T13:53:39.201Z,12.20
2019-03-13T13:55:15.329Z,14.20
2019-03-13T13:56:51.722Z,11.83
2019-03-13T13:58:28.683Z,10.37
2019-03-13T14:00:08.848Z,11.03
2019-03-13T14:01:45.053Z,14.03
2019-03-13T14:03:21.289Z,13.47
2019-03-13T14:04:57.374Z,11.50
2019-03-13T14:06:33.508Z,14.00
2019-03-13T14:08:09.802Z,25.47
2019-03-13T14:09:47.286Z,31.87
2019-03-13T14:11:23.479Z,16.33
2019-03-13T14:12:59.691Z,11.97
2019-03-13T14:14:35.815Z,11.20
2019-03-13T14:16:12.119Z,11.57
2019-03-13T14:17:48.349Z,10.40
2019-03-13T14:19:24.472Z,12.23
2019-03-13T14:21:01.980Z,18.73
2019-03-13T14:22:38.305Z,18.80
2019-03-13T14:24:17.253Z,17.87
2019-03-13T14:25:52.555Z,22.60
2019-03-13T14:27:28.715Z,26.47
2019-03-13T14:29:05.001Z,14.07
2019-03-13T14:30:41.229Z,20.10
2019-03-13T14:32:17.123Z,16.77
2019-03-13T14:33:53.350Z,11.37
2019-03-13T14:35:29.401Z,14.40
2019-03-13T14:37:05.701Z,19.60
2019-03-13T14:38:41.799Z,14.00
2019-03-13T14:40:20.398Z,18.60
2019-03-13T14:41:56.596Z,12.23
2019-03-13T14:43:32.972Z,15.50
2019-03-13T14:45:16.082Z,13.77
2019-03-13T14:46:52.283Z,22.43
2019-03-13T14:48:28.496Z,28.87
2019-03-13T14:50:06.370Z,34.33
2019-03-13T14:51:42.506Z,24.90
2019-03-13T14:53:18.800Z,16.50
2019-03-13T14:54:55.032Z,33.60
2019-03-13T14:56:31.177Z,35.77
2019-03-13T14:58:07.480Z,28.77
2019-03-13T14:59:43.650Z,28.57
2019-03-13T15:01:19.954Z,28.90
2019-03-13T15:02:56.451Z,28.47
2019-03-13T15:04:32.667Z,22.93
2019-03-13T15:06:08.900Z,19.47
2019-03-13T15:07:45.031Z,17.13
2019-03-13T15:09:22.397Z,14.47
2019-03-13T15:10:58.590Z,16.67
2019-03-13T15:12:34.647Z,17.07
2019-03-13T15:14:10.842Z,12.50
2019-03-13T15:15:47.142Z,15.20
2019-03-13T15:17:23.376Z,15.57
2019-03-13T15:18:59.533Z,15.60
2019-03-13T15:20:35.787Z,16.37
2019-03-13T15:22:11.912Z,15.27
2019-03-13T15:23:48.047Z,14.00
2019-03-13T15:25:24.257Z,15.57
2019-03-13T15:27:00.502Z,13.67
2019-03-13T15:28:36.733Z,13.27
2019-03-13T15:30:27.671Z,14.73
2019-03-13T15:32:03.696Z,13.30
2019-03-13T15:33:39.786Z,13.63
2019-03-13T15:35:16.083Z,13.13
2019-03-13T15:36:52.254Z,11.87
2019-03-13T15:38:28.450Z,14.13
2019-03-13T15:40:07.257Z,12.87
2019-03-13T15:41:43.413Z,12.90
2019-03-13T15:43:19.660Z,15.17
2019-03-13T15:44:55.779Z,15.40
2019-03-13T15:46:32.932Z,19.80
2019-03-13T15:48:10.452Z,15.50
2019-03-13T15:49:46.643Z,19.77
2019-03-13T15:51:22.696Z,18.83
2019-03-13T15:52:58.918Z,17.60
2019-03-13T15:54:35.069Z,19.80
2019-03-13T15:56:11.447Z,14.17
2019-03-13T15:57:47.575Z,14.40
2019-03-13T15:59:23.718Z,14.57
2019-03-13T16:00:59.874Z,14.17
2019-03-13T16:02:36.082Z,15.77
2019-03-13T16:04:12.309Z,15.60
2019-03-13T16:05:48.459Z,17.10
2019-03-13T16:07:25.763Z,17.03
2019-03-13T16:09:01.901Z,17.70
2019-03-13T16:10:38.484Z,17.00
2019-03-13T16:12:14.791Z,18.63
2019-03-13T16:13:50.892Z,16.37
2019-03-13T16:15:41.867Z,16.00
2019-03-13T16:17:18.031Z,16.93
2019-03-13T16:18:54.056Z,17.03
2019-03-13T16:20:30.262Z,18.43
2019-03-13T16:22:07.637Z,20.13
2019-03-13T16:23:43.870Z,20.33
2019-03-13T16:25:20.028Z,22.17
2019-03-13T16:26:56.087Z,23.30
2019-03-13T16:28:32.314Z,23.63
2019-03-13T16:30:22.408Z,22.93
2019-03-13T16:31:58.903Z,22.20
2019-03-13T16:33:34.861Z,22.97
2019-03-13T16:35:11.459Z,23.93
2019-03-13T16:36:47.487Z,23.07
2019-03-13T16:38:24.419Z,23.60
2019-03-13T16:40:00.420Z,26.80
2019-03-13T16:41:36.555Z,27.30
2019-03-13T16:43:12.781Z,26.87
2019-03-13T16:44:48.758Z,28.70
2019-03-13T16:46:24.938Z,28.10
2019-03-13T16:48:01.148Z,32.00
2019-03-13T16:49:39.195Z,36.03
2019-03-13T16:51:15.261Z,39.87
2019-03-13T16:52:51.253Z,45.73
2019-03-13T16:54:27.496Z,53.03
2019-03-13T16:56:03.739Z,57.40
2019-03-13T16:57:39.967Z,63.63
2019-03-13T16:59:17.431Z,64.83
2019-03-13T17:00:53.738Z,78.27
2019-03-13T17:02:30.048Z,70.23
2019-03-13T17:04:06.371Z,69.13
2019-03-13T17:05:42.572Z,75.27
2019-03-13T17:07:18.712Z,80.40
2019-03-13T17:08:54.852Z,79.47
2019-03-13T17:10:32.356Z,96.90
2019-03-13T17:12:08.617Z,97.37
2019-03-13T17:13:44.823Z,100.40
2019-03-13T17:15:22.958Z,96.87
2019-03-13T17:16:59.152Z,94.80
2019-03-13T17:18:35.288Z,95.90
2019-03-13T17:20:18.406Z,94.53
2019-03-13T17:21:54.715Z,90.57
2019-03-13T17:23:30.996Z,83.20
2019-03-13T17:25:11.890Z,82.83
2019-03-13T17:26:48.104Z,86.43
2019-03-13T17:28:25.614Z,78.90
2019-03-13T17:30:01.867Z,79.30
2019-03-13T17:31:38.008Z,81.27
2019-03-13T17:33:14.311Z,89.27
2019-03-13T17:34:50.450Z,89.10
2019-03-13T17:36:26.633Z,100.40
2019-03-13T17:38:02.705Z,109.37
2019-03-13T17:39:38.839Z,110.80
2019-03-13T17:41:15.147Z,96.60
2019-03-13T17:42:51.358Z,114.83
2019-03-13T17:44:27.492Z,117.40
2019-03-13T17:46:06.890Z,83.47
2019-03-13T17:47:41.686Z,86.17
2019-03-13T17:49:17.907Z,81.90
2019-03-13T17:50:53.963Z,85.10
2019-03-13T17:52:30.136Z,77.50
2019-03-13T17:54:06.465Z,99.10
2019-03-13T17:55:42.696Z,99.83
2019-03-13T17:57:18.836Z,92.50
2019-03-13T17:58:54.977Z,89.53
2019-03-13T18:00:36.306Z,88.40
2019-03-13T18:02:12.165Z,87.80
2019-03-13T18:03:49.968Z,82.63
2019-03-13T18:05:26.430Z,84.93
2019-03-13T18:07:02.646Z,81.07
2019-03-13T18:08:38.878Z,89.57
2019-03-13T18:10:20.397Z,84.50
2019-03-13T18:11:56.563Z,85.03
2019-03-13T18:13:32.730Z,84.57
2019-03-13T18:15:12.327Z,80.13
2019-03-13T18:16:48.382Z,84.47
2019-03-13T18:18:26.000Z,80.57
2019-03-13T18:20:02.169Z,82.00
2019-03-13T18:21:38.372Z,80.47
2019-03-13T18:23:14.535Z,83.80
2019-03-13T18:24:50.594Z,82.80
2019-03-13T18:26:26.927Z,81.87
2019-03-13T18:28:03.728Z,77.20
2019-03-13T18:29:39.907Z,76.77
2019-03-13T18:31:16.221Z,70.20
2019-03-13T18:32:53.682Z,67.17
2019-03-13T18:34:29.912Z,74.00
2019-03-13T18:36:06.242Z,74.60
2019-03-13T18:37:42.463Z,93.43
2019-03-13T18:39:18.610Z,88.90
2019-03-13T18:40:54.842Z,83.53
2019-03-13T18:42:31.047Z,87.97
2019-03-13T18:44:07.370Z,90.70
2019-03-13T18:45:43.538Z,89.03
2019-03-13T18:47:19.845Z,94.70
2019-03-13T18:48:55.963Z,115.80
2019-03-13T18:50:32.262Z,114.70
2019-03-13T18:52:08.574Z,114.70
2019-03-13T18:53:44.800Z,109.63
2019-03-13T18:55:26.889Z,126.53
2019-03-13T18:57:03.118Z,178.67
2019-03-13T18:58:40.387Z,182.90
2019-03-13T19:00:26.060Z,245.93
2019-03-13T19:02:02.213Z,129.03
2019-03-13T19:03:38.277Z,103.93
2019-03-13T19:05:15.611Z,86.17
2019-03-13T19:06:51.841Z,102.33
2019-03-13T19:08:27.999Z,81.37
2019-03-13T19:10:06.809Z,91.03
2019-03-13T19:11:43.039Z,92.63
2019-03-13T19:13:19.281Z,97.70
2019-03-13T19:14:55.404Z,75.07
2019-03-13T19:16:31.584Z,79.87
2019-03-13T19:18:07.818Z,78.77
2019-03-13T19:19:43.971Z,86.03
2019-03-13T19:21:20.101Z,83.73
2019-03-13T19:22:56.421Z,91.17
2019-03-13T19:24:32.656Z,102.97
2019-03-13T19:26:08.897Z,97.73
2019-03-13T19:27:45.104Z,97.83
2019-03-13T19:29:21.182Z,96.77
2019-03-13T19:30:57.290Z,87.60
2019-03-13T19:32:33.427Z,85.20
2019-03-13T19:34:09.500Z,93.93
2019-03-13T19:35:45.697Z,86.23
2019-03-13T19:37:21.780Z,90.30
2019-03-13T19:38:57.915Z,92.70
2019-03-13T19:40:34.223Z,95.20
2019-03-13T19:42:10.385Z,97.93
2019-03-13T19:43:47.751Z,88.07
2019-03-13T19:45:34.215Z,84.13
2019-03-13T19:47:10.351Z,90.43
2019-03-13T19:48:46.597Z,77.67
2019-03-13T19:50:22.740Z,101.43
2019-03-13T19:51:58.886Z,81.23
2019-03-13T19:53:35.033Z,76.07
2019-03-13T19:55:14.340Z,68.90
2019-03-13T19:56:50.764Z,74.83
2019-03-13T19:58:26.872Z,78.10
2019-03-13T20:00:03.432Z,73.00
2019-03-13T20:01:39.740Z,67.40
2019-03-13T20:03:19.976Z,68.00
2019-03-13T20:04:56.053Z,68.43
2019-03-13T20:06:41.761Z,72.60
2019-03-13T20:08:09.917Z,67.67
2019-03-13T20:09:46.168Z,67.47
2019-03-13T20:11:22.698Z,68.30
2019-03-13T20:12:59.179Z,68.77
2019-03-13T20:14:35.413Z,66.30
2019-03-13T20:16:11.723Z,62.27
2019-03-13T20:17:47.992Z,62.53
2019-03-13T20:19:24.229Z,61.53
2019-03-13T20:21:00.415Z,73.33
2019-03-13T20:22:38.070Z,72.57
2019-03-13T20:24:14.207Z,71.30
2019-03-13T20:25:50.417Z,74.70
2019-03-13T20:27:26.783Z,87.67
2019-03-13T20:29:03.205Z,89.73
2019-03-13T20:30:39.477Z,117.17
2019-03-13T20:32:15.337Z,97.20
2019-03-13T20:33:51.409Z,90.63
2019-03-13T20:35:27.658Z,98.87
2019-03-13T20:37:03.883Z,90.63
2019-03-13T20:38:40.010Z,99.77
2019-03-13T20:40:25.343Z,105.70
2019-03-13T20:42:01.660Z,99.63
2019-03-13T20:43:37.669Z,109.63
2019-03-13T20:45:17.890Z,90.47
2019-03-13T20:46:54.067Z,67.47
2019-03-13T20:48:30.366Z,92.17
2019-03-13T20:50:09.112Z,82.47
2019-03-13T20:51:45.349Z,85.33
2019-03-13T20:53:21.568Z,84.70
2019-03-13T20:54:57.663Z,83.27
2019-03-13T20:56:33.892Z,81.93
2019-03-13T20:58:11.328Z,74.80
2019-03-13T20:59:47.545Z,61.77
2019-03-13T21:01:23.896Z,58.93
2019-03-13T21:03:00.323Z,53.97
2019-03-13T21:04:36.552Z,53.73
2019-03-13T21:06:12.791Z,49.63
2019-03-13T21:07:48.925Z,48.30
2019-03-13T21:09:25.138Z,40.97
2019-03-13T21:11:01.598Z,43.17
2019-03-13T21:12:37.690Z,42.80
2019-03-13T21:14:13.826Z,43.60
2019-03-13T21:15:49.966Z,45.03
2019-03-13T21:17:26.132Z,44.50
2019-03-13T21:19:03.494Z,44.87
2019-03-13T21:20:39.796Z,41.97